createdAt,value
2023-03-11T00:00:16.417Z,56.09
2023-03-11T00:02:44.202Z,56.42
2023-03-11T00:05:14.022Z,56.55
2023-03-11T00:07:41.068Z,56.66
2023-03-11T00:10:08.327Z,56.04
2023-03-11T00:12:35.164Z,56.42
2023-03-11T00:15:02.216Z,56.49
2023-03-11T00:17:29.226Z,56.40
2023-03-11T00:19:56.284Z,55.93
2023-03-11T00:22:24.175Z,55.73
2023-03-11T00:24:51.162Z,55.83
2023-03-11T00:27:18.015Z,55.68
2023-03-11T00:29:45.058Z,56.13
2023-03-11T00:32:12.293Z,56.30
2023-03-11T00:34:39.341Z,56.31
2023-03-11T00:37:06.265Z,55.97
2023-03-11T00:39:33.971Z,55.00
2023-03-11T00:42:00.981Z,52.71
2023-03-11T00:44:27.913Z,50.19
2023-03-11T00:46:54.759Z,48.67
2023-03-11T00:49:21.715Z,48.02
2023-03-11T00:51:48.779Z,49.07
2023-03-11T00:54:15.795Z,50.21
2023-03-11T00:56:42.932Z,50.91
2023-03-11T00:59:11.169Z,51.05
2023-03-11T01:01:38.066Z,51.25
2023-03-11T01:04:04.992Z,51.35
2023-03-11T01:06:43.172Z,51.94
2023-03-11T01:09:12.309Z,52.21
2023-03-11T01:11:39.365Z,52.35
2023-03-11T01:14:08.367Z,52.46
2023-03-11T01:16:35.241Z,53.20
2023-03-11T01:19:02.271Z,54.50
2023-03-11T01:21:29.159Z,55.23
2023-03-11T01:23:56.058Z,55.63
2023-03-11T01:26:23.023Z,55.88
2023-03-11T01:28:49.945Z,56.18
2023-03-11T01:31:17.548Z,56.38
2023-03-11T01:33:44.685Z,56.99
2023-03-11T01:36:12.269Z,57.84
2023-03-11T01:38:39.289Z,58.32
2023-03-11T01:41:06.623Z,58.58
2023-03-11T01:43:46.096Z,57.82
2023-03-11T01:46:50.352Z,57.91
2023-03-11T01:49:18.106Z,57.79
2023-03-11T01:51:47.109Z,56.37
2023-03-11T01:54:19.389Z,54.28
2023-03-11T01:56:46.803Z,53.35
2023-03-11T01:59:16.594Z,52.79
2023-03-11T02:01:46.910Z,52.47
2023-03-11T02:04:14.244Z,52.65
2023-03-11T02:06:41.170Z,53.11
2023-03-11T02:09:08.746Z,53.28
2023-03-11T02:11:35.700Z,53.23
2023-03-11T02:14:04.881Z,52.76
2023-03-11T02:16:32.302Z,52.44
2023-03-11T02:19:01.101Z,52.12
2023-03-11T02:21:32.990Z,51.59
2023-03-11T02:24:02.330Z,51.53
2023-03-11T02:26:38.308Z,51.34
2023-03-11T02:29:07.136Z,51.60
2023-03-11T02:31:35.143Z,51.73
2023-03-11T02:34:05.125Z,51.48
2023-03-11T02:36:32.236Z,51.40
2023-03-11T02:38:59.361Z,51.22
2023-03-11T02:41:26.806Z,51.32
2023-03-11T02:43:54.008Z,51.57
2023-03-11T02:46:23.056Z,51.94
2023-03-11T02:48:50.105Z,51.19
2023-03-11T02:51:17.658Z,50.71
2023-03-11T02:53:46.958Z,50.30
2023-03-11T02:56:14.941Z,50.43
2023-03-11T02:58:42.884Z,50.07
2023-03-11T03:01:10.737Z,50.19
2023-03-11T03:03:39.022Z,51.13
2023-03-11T03:06:06.880Z,51.83
2023-03-11T03:08:33.805Z,52.63
2023-03-11T03:11:01.427Z,53.20
2023-03-11T03:13:29.357Z,53.63
2023-03-11T03:15:56.918Z,53.78
2023-03-11T03:18:23.872Z,54.21
2023-03-11T03:20:53.060Z,54.04
2023-03-11T03:23:20.593Z,54.17
2023-03-11T03:25:47.477Z,54.29
2023-03-11T03:28:15.139Z,54.40
2023-03-11T03:30:45.274Z,54.91
2023-03-11T03:33:14.013Z,55.57
2023-03-11T03:35:42.965Z,55.70
2023-03-11T03:38:16.430Z,55.96
2023-03-11T03:40:47.923Z,56.47
2023-03-11T03:43:17.753Z,56.28
2023-03-11T03:45:46.227Z,56.88
2023-03-11T03:48:13.267Z,56.24
2023-03-11T03:50:44.209Z,56.47
2023-03-11T03:53:14.779Z,55.87
2023-03-11T03:55:42.682Z,55.42
2023-03-11T03:58:10.519Z,55.11
2023-03-11T04:00:39.535Z,54.76
2023-03-11T04:03:07.167Z,54.80
2023-03-11T04:05:42.110Z,54.68
2023-03-11T04:08:09.227Z,54.58
2023-03-11T04:10:36.141Z,54.75
2023-03-11T04:13:03.805Z,54.87
2023-03-11T04:15:31.264Z,55.10
2023-03-11T04:17:59.196Z,55.21
2023-03-11T04:20:26.776Z,55.36
2023-03-11T04:22:54.168Z,55.33
2023-03-11T04:25:23.859Z,55.30
2023-03-11T04:27:52.448Z,55.22
2023-03-11T04:30:20.495Z,55.62
2023-03-11T04:32:49.795Z,56.09
2023-03-11T04:35:17.344Z,56.48
2023-03-11T04:37:45.794Z,56.55
2023-03-11T04:40:13.101Z,56.35
2023-03-11T04:42:40.499Z,56.85
2023-03-11T04:45:08.300Z,57.12
2023-03-11T04:47:35.691Z,57.23
2023-03-11T04:50:05.960Z,57.14
2023-03-11T04:52:33.038Z,57.13
2023-03-11T04:55:00.125Z,57.39
2023-03-11T04:57:27.297Z,57.69
2023-03-11T04:59:56.156Z,57.51
2023-03-11T05:02:23.161Z,57.48
2023-03-11T05:04:55.895Z,57.54
2023-03-11T05:07:23.032Z,57.42
2023-03-11T05:09:50.796Z,57.20
2023-03-11T05:12:17.798Z,56.82
2023-03-11T05:14:49.340Z,56.10
2023-03-11T05:17:18.881Z,56.14
2023-03-11T05:19:47.615Z,56.41
2023-03-11T05:22:22.618Z,56.76
2023-03-11T05:24:50.045Z,57.08
2023-03-11T05:27:18.386Z,57.58
2023-03-11T05:29:48.420Z,57.82
2023-03-11T05:32:17.182Z,58.01
2023-03-11T05:34:46.453Z,58.09
2023-03-11T05:37:15.899Z,58.44
2023-03-11T05:39:43.597Z,58.69
2023-03-11T05:42:12.249Z,58.71
2023-03-11T05:44:40.099Z,58.84
2023-03-11T05:47:07.164Z,58.92
2023-03-11T05:49:37.132Z,58.53
2023-03-11T05:52:04.665Z,58.21
2023-03-11T05:54:32.609Z,58.22
2023-03-11T05:56:59.696Z,56.34
2023-03-11T05:59:26.822Z,55.31
2023-03-11T06:01:59.587Z,54.70
2023-03-11T06:04:26.616Z,52.56
2023-03-11T06:06:54.169Z,50.45
2023-03-11T06:09:23.744Z,49.93
2023-03-11T06:11:52.534Z,47.83
2023-03-11T06:14:22.820Z,47.74
2023-03-11T06:16:51.439Z,45.43
2023-03-11T06:19:21.751Z,46.87
2023-03-11T06:21:58.854Z,45.93
2023-03-11T06:24:26.043Z,44.89
2023-03-11T06:26:53.390Z,42.80
2023-03-11T06:29:24.674Z,41.13
2023-03-11T06:31:52.118Z,38.32
2023-03-11T06:34:19.121Z,37.54
2023-03-11T06:36:46.406Z,37.98
2023-03-11T06:39:15.521Z,38.90
2023-03-11T06:41:45.702Z,41.01
2023-03-11T06:44:13.607Z,41.33
2023-03-11T06:46:41.925Z,42.00
2023-03-11T06:49:09.033Z,41.67
2023-03-11T06:51:37.514Z,41.56
2023-03-11T06:54:05.086Z,42.69
2023-03-11T06:56:32.674Z,42.08
2023-03-11T06:59:04.598Z,41.78
2023-03-11T07:01:33.895Z,41.40
2023-03-11T07:04:02.958Z,41.50
2023-03-11T07:06:30.653Z,42.92
2023-03-11T07:09:12.133Z,45.20
2023-03-11T07:11:42.754Z,44.30
2023-03-11T07:14:14.344Z,43.64
2023-03-11T07:16:45.464Z,44.09
2023-03-11T07:19:23.205Z,44.03
2023-03-11T07:21:50.312Z,44.20
2023-03-11T07:24:17.803Z,43.58
2023-03-11T07:26:44.854Z,42.08
2023-03-11T07:29:11.730Z,42.26
2023-03-11T07:31:38.844Z,40.62
2023-03-11T07:34:11.213Z,41.14
2023-03-11T07:36:40.429Z,39.25
2023-03-11T07:39:07.394Z,39.84
2023-03-11T07:41:35.145Z,40.60
2023-03-11T07:44:02.560Z,40.05
2023-03-11T07:46:30.177Z,40.94
2023-03-11T07:48:57.188Z,41.16
2023-03-11T07:51:25.870Z,42.17
2023-03-11T07:53:53.687Z,41.39
2023-03-11T07:56:21.312Z,43.26
2023-03-11T07:58:48.299Z,45.06
2023-03-11T08:01:17.013Z,45.70
2023-03-11T08:03:47.925Z,46.28
2023-03-11T08:06:19.579Z,46.50
2023-03-11T08:08:46.669Z,46.91
2023-03-11T08:11:14.392Z,46.81
2023-03-11T08:13:41.873Z,46.66
2023-03-11T08:16:09.630Z,46.55
2023-03-11T08:18:36.693Z,46.74
2023-03-11T08:21:07.476Z,46.63
2023-03-11T08:23:34.534Z,46.00
2023-03-11T08:26:08.444Z,45.84
2023-03-11T08:28:36.384Z,46.18
2023-03-11T08:31:03.889Z,45.57
2023-03-11T08:33:30.818Z,45.23
2023-03-11T08:35:58.088Z,45.29
2023-03-11T08:38:25.232Z,45.07
2023-03-11T08:40:52.128Z,45.13
2023-03-11T08:43:19.111Z,44.78
2023-03-11T08:45:46.122Z,44.45
2023-03-11T08:48:13.094Z,44.22
2023-03-11T08:50:53.389Z,44.55
2023-03-11T08:53:22.283Z,44.30
2023-03-11T08:55:49.899Z,44.28
2023-03-11T08:58:16.841Z,43.90
2023-03-11T09:00:44.107Z,44.05
2023-03-11T09:03:11.300Z,43.68
2023-03-11T09:05:38.198Z,43.46
2023-03-11T09:08:06.733Z,42.98
2023-03-11T09:10:33.589Z,41.75
2023-03-11T09:13:00.576Z,41.77
2023-03-11T09:15:27.477Z,41.01
2023-03-11T09:17:54.572Z,41.27
2023-03-11T09:20:21.697Z,40.67
2023-03-11T09:22:48.796Z,40.97
2023-03-11T09:25:15.834Z,41.20
2023-03-11T09:27:43.272Z,41.31
2023-03-11T09:30:10.811Z,41.18
2023-03-11T09:32:37.964Z,41.64
2023-03-11T09:35:05.244Z,42.41
2023-03-11T09:39:22.347Z,43.00
2023-03-11T09:42:11.080Z,42.63
2023-03-11T09:44:42.587Z,43.26
2023-03-11T09:47:21.693Z,43.32
2023-03-11T09:50:07.408Z,43.96
2023-03-11T09:52:46.269Z,44.04
2023-03-11T09:55:25.796Z,44.30
2023-03-11T09:57:56.244Z,44.18
2023-03-11T10:00:25.305Z,43.55
2023-03-11T10:02:52.791Z,43.08
2023-03-11T10:05:27.581Z,42.63
2023-03-11T10:08:13.240Z,41.21
2023-03-11T10:10:50.255Z,39.64
2023-03-11T10:13:32.518Z,39.20
2023-03-11T10:16:19.428Z,38.52
2023-03-11T10:18:56.960Z,38.33
2023-03-11T10:21:26.992Z,37.38
2023-03-11T10:24:02.158Z,37.51
2023-03-11T10:26:45.800Z,37.27
2023-03-11T10:29:19.180Z,36.92
2023-03-11T10:31:49.403Z,36.77
2023-03-11T10:34:40.044Z,36.21
2023-03-11T10:37:46.560Z,36.79
2023-03-11T10:40:32.316Z,36.44
2023-03-11T10:43:04.594Z,36.07
2023-03-11T10:45:41.636Z,36.01
2023-03-11T10:48:14.543Z,35.56
2023-03-11T10:51:14.915Z,35.34
2023-03-11T10:54:03.666Z,34.39
2023-03-11T10:56:37.140Z,34.41
2023-03-11T10:59:06.865Z,33.73
2023-03-11T11:01:34.583Z,33.46
2023-03-11T11:04:02.548Z,33.73
2023-03-11T11:06:37.489Z,33.14
2023-03-11T11:09:22.349Z,33.26
2023-03-11T11:12:16.619Z,33.35
2023-03-11T11:14:52.719Z,33.82
2023-03-11T11:17:31.287Z,33.27
2023-03-11T11:19:59.738Z,33.17
2023-03-11T11:22:28.577Z,33.17
2023-03-11T11:24:58.260Z,33.49
2023-03-11T11:27:29.396Z,33.25
2023-03-11T11:30:12.507Z,33.38
2023-03-11T11:32:39.631Z,33.37
2023-03-11T11:35:15.244Z,33.19
2023-03-11T11:37:46.625Z,33.46
2023-03-11T11:40:17.303Z,33.38
2023-03-11T11:42:52.586Z,33.24
2023-03-11T11:45:33.394Z,33.67
2023-03-11T11:48:08.797Z,33.46
2023-03-11T11:50:42.151Z,33.93
2023-03-11T11:53:20.940Z,34.57
2023-03-11T11:55:52.710Z,34.73
2023-03-11T11:58:21.555Z,35.23
2023-03-11T12:01:07.117Z,35.03
2023-03-11T12:04:06.898Z,35.05
2023-03-11T12:06:50.835Z,35.19
2023-03-11T12:09:39.507Z,34.58
2023-03-11T12:12:21.814Z,34.64
2023-03-11T12:15:21.017Z,34.31
2023-03-11T12:17:52.733Z,33.93
2023-03-11T12:20:54.618Z,34.18
2023-03-11T12:23:46.150Z,34.30
2023-03-11T12:26:22.240Z,34.51
2023-03-11T12:29:24.645Z,34.64
2023-03-11T12:31:53.812Z,34.66
2023-03-11T12:34:24.939Z,35.64
2023-03-11T12:36:53.239Z,35.75
2023-03-11T12:39:32.932Z,35.99
2023-03-11T12:42:38.570Z,35.97
2023-03-11T12:45:43.263Z,36.10
2023-03-11T12:48:28.773Z,35.65
2023-03-11T12:50:59.737Z,35.87
2023-03-11T12:53:45.419Z,35.45
2023-03-11T12:56:25.303Z,35.67
2023-03-11T12:59:04.419Z,35.87
2023-03-11T13:01:56.820Z,36.79
2023-03-11T13:04:27.518Z,36.85
2023-03-11T13:07:05.506Z,36.35
2023-03-11T13:09:33.003Z,36.41
2023-03-11T13:12:00.305Z,36.59
2023-03-11T13:14:32.915Z,35.98
2023-03-11T13:17:26.116Z,36.30
2023-03-11T13:19:55.736Z,36.96
2023-03-11T13:22:43.636Z,36.46
2023-03-11T13:25:29.901Z,36.83
2023-03-11T13:28:27.835Z,36.95
2023-03-11T13:31:16.245Z,37.44
2023-03-11T13:33:58.211Z,37.43
2023-03-11T13:37:00.395Z,38.28
2023-03-11T13:39:39.447Z,38.50
2023-03-11T13:42:20.294Z,38.81
2023-03-11T13:44:48.096Z,38.98
2023-03-11T13:47:17.806Z,38.87
2023-03-11T13:50:02.907Z,39.40
2023-03-11T13:52:37.777Z,39.67
2023-03-11T13:55:15.839Z,39.92
2023-03-11T13:57:53.543Z,39.98
2023-03-11T14:00:28.701Z,39.80
2023-03-11T14:02:59.346Z,39.14
2023-03-11T14:05:31.081Z,38.77
2023-03-11T14:08:19.466Z,38.97
2023-03-11T14:11:01.333Z,38.81
2023-03-11T14:13:38.384Z,38.96
2023-03-11T14:16:16.011Z,38.40
2023-03-11T14:18:46.689Z,38.40
2023-03-11T14:21:20.061Z,38.57
2023-03-11T14:23:50.186Z,38.51
2023-03-11T14:26:23.213Z,38.32
2023-03-11T14:28:51.700Z,38.36
2023-03-11T14:31:34.737Z,38.50
2023-03-11T14:34:07.750Z,38.37
2023-03-11T14:36:54.448Z,38.56
2023-03-11T14:39:28.218Z,37.97
2023-03-11T14:42:19.083Z,38.27
2023-03-11T14:45:18.157Z,38.64
2023-03-11T14:48:16.536Z,38.56
2023-03-11T14:50:50.055Z,38.29
2023-03-11T14:53:26.279Z,38.35
2023-03-11T14:55:59.808Z,37.94
2023-03-11T14:58:49.166Z,38.35
2023-03-11T15:01:26.484Z,38.94
2023-03-11T15:03:58.763Z,38.79
2023-03-11T15:06:30.872Z,39.43
2023-03-11T15:09:07.683Z,39.48
2023-03-11T15:12:01.992Z,39.54
2023-03-11T15:14:32.766Z,39.56
2023-03-11T15:17:42.748Z,39.68
2023-03-11T15:20:31.435Z,39.93
2023-03-11T15:23:04.490Z,40.12
2023-03-11T15:25:33.465Z,40.42
2023-03-11T15:28:29.266Z,40.90
2023-03-11T15:31:15.210Z,41.11
2023-03-11T15:33:43.579Z,41.38
2023-03-11T15:36:42.453Z,41.58
2023-03-11T15:39:17.818Z,41.60
2023-03-11T15:41:48.213Z,41.77
2023-03-11T15:44:28.171Z,42.00
2023-03-11T15:46:55.355Z,42.06
2023-03-11T15:49:22.691Z,42.08
2023-03-11T15:51:49.816Z,42.47
2023-03-11T15:54:17.014Z,42.68
2023-03-11T15:56:45.437Z,42.72
2023-03-11T15:59:17.312Z,42.94
2023-03-11T16:01:46.488Z,43.12
2023-03-11T16:04:16.204Z,42.94
2023-03-11T16:06:44.373Z,42.94
2023-03-11T16:09:12.389Z,42.81
2023-03-11T16:11:40.981Z,42.93
2023-03-11T16:14:16.521Z,43.10
2023-03-11T16:16:44.831Z,43.37
2023-03-11T16:19:12.322Z,43.21
2023-03-11T16:21:49.655Z,43.32
2023-03-11T16:24:23.612Z,43.52
2023-03-11T16:26:52.921Z,43.47
2023-03-11T16:29:20.704Z,43.50
2023-03-11T16:31:49.419Z,43.56
2023-03-11T16:34:16.838Z,43.66
2023-03-11T16:36:44.116Z,43.70
2023-03-11T16:39:11.980Z,43.91
2023-03-11T16:41:44.535Z,44.00
2023-03-11T16:44:11.980Z,43.92
2023-03-11T16:46:39.162Z,44.14
2023-03-11T16:49:06.585Z,43.99
2023-03-11T16:51:34.150Z,44.19
2023-03-11T16:54:01.503Z,44.39
2023-03-11T16:56:28.674Z,44.38
2023-03-11T16:58:55.816Z,44.41
2023-03-11T17:01:23.094Z,44.58
2023-03-11T17:03:51.097Z,44.18
2023-03-11T17:06:19.753Z,43.77
2023-03-11T17:08:49.703Z,43.63
2023-03-11T17:11:18.154Z,43.81
2023-03-11T17:13:45.664Z,43.84
2023-03-11T17:16:13.718Z,43.72
2023-03-11T17:18:41.985Z,43.95
2023-03-11T17:21:12.084Z,43.75
2023-03-11T17:23:39.866Z,43.64
2023-03-11T17:26:12.960Z,43.51
2023-03-11T17:28:40.671Z,43.51
2023-03-11T17:31:15.950Z,43.52
2023-03-11T17:33:44.296Z,43.16
2023-03-11T17:36:16.274Z,43.48
2023-03-11T17:38:45.542Z,43.32
2023-03-11T17:41:17.587Z,43.35
2023-03-11T17:43:46.215Z,43.49
2023-03-11T17:46:16.046Z,43.49
2023-03-11T17:48:45.352Z,43.74
2023-03-11T17:51:15.840Z,43.43
2023-03-11T17:53:45.980Z,43.76
2023-03-11T17:56:15.420Z,43.60
2023-03-11T17:58:42.772Z,43.61
2023-03-11T18:01:16.219Z,43.68
2023-03-11T18:03:43.629Z,43.92
2023-03-11T18:06:11.841Z,44.00
2023-03-11T18:08:39.217Z,44.73
2023-03-11T18:11:09.991Z,45.25
2023-03-11T18:13:38.844Z,45.07
2023-03-11T18:16:09.584Z,45.85
2023-03-11T18:18:37.867Z,46.02
2023-03-11T18:21:11.479Z,46.83
2023-03-11T18:23:39.116Z,47.38
2023-03-11T18:26:08.539Z,48.09
2023-03-11T18:28:36.151Z,50.47
2023-03-11T18:31:14.674Z,52.68
2023-03-11T18:33:46.629Z,51.68
2023-03-11T18:36:21.455Z,51.88
2023-03-11T18:38:49.249Z,52.15
2023-03-11T18:41:16.681Z,52.53
2023-03-11T18:43:43.862Z,52.47
2023-03-11T18:46:16.469Z,52.11
2023-03-11T18:48:43.541Z,52.04
2023-03-11T18:51:12.850Z,51.92
2023-03-11T18:53:42.442Z,52.62
2023-03-11T18:56:13.860Z,50.21
2023-03-11T18:58:41.248Z,51.78
2023-03-11T19:01:15.294Z,49.51
2023-03-11T19:03:44.210Z,47.71
2023-03-11T19:06:13.409Z,47.08
2023-03-11T19:08:40.815Z,46.59
2023-03-11T19:11:09.581Z,45.71
2023-03-11T19:13:46.715Z,45.01
2023-03-11T19:16:17.723Z,44.97
2023-03-11T19:18:45.637Z,45.11
2023-03-11T19:21:14.969Z,45.07
2023-03-11T19:23:42.234Z,45.42
2023-03-11T19:26:09.850Z,45.65
2023-03-11T19:28:37.259Z,45.97
2023-03-11T19:31:05.352Z,46.03
2023-03-11T19:33:32.784Z,46.14
2023-03-11T19:36:02.501Z,45.75
2023-03-11T19:38:31.161Z,46.01
2023-03-11T19:41:01.559Z,45.63
2023-03-11T19:43:29.492Z,46.03
2023-03-11T19:45:57.015Z,46.39
2023-03-11T19:48:24.407Z,47.72
2023-03-11T19:50:52.444Z,48.52
2023-03-11T19:53:21.924Z,51.95
2023-03-11T19:55:52.623Z,52.17
2023-03-11T19:58:21.195Z,50.55
2023-03-11T20:00:48.537Z,48.48
2023-03-11T20:03:17.248Z,47.84
2023-03-11T20:05:46.797Z,46.60
2023-03-11T20:08:17.261Z,46.51
2023-03-11T20:10:47.246Z,46.82
2023-03-11T20:13:16.638Z,46.65
2023-03-11T20:15:44.684Z,46.95
2023-03-11T20:18:13.452Z,46.91
2023-03-11T20:20:44.240Z,47.14
2023-03-11T20:23:13.480Z,47.90
2023-03-11T20:25:42.192Z,48.26
2023-03-11T20:28:10.942Z,48.35
2023-03-11T20:30:40.246Z,49.36
2023-03-11T20:33:08.396Z,49.30
2023-03-11T20:35:36.276Z,49.07
2023-03-11T20:38:04.763Z,49.53
2023-03-11T20:40:32.461Z,49.64
2023-03-11T20:43:00.182Z,49.36
2023-03-11T20:45:27.595Z,49.75
2023-03-11T20:47:55.841Z,49.88
2023-03-11T20:50:23.422Z,49.88
2023-03-11T20:52:51.537Z,50.22
2023-03-11T20:55:18.937Z,50.29
2023-03-11T20:57:46.811Z,50.20
2023-03-11T21:00:14.328Z,50.15
2023-03-11T21:02:43.476Z,51.43
2023-03-11T21:05:12.367Z,51.95
2023-03-11T21:07:40.549Z,52.75
2023-03-11T21:10:12.772Z,54.24
2023-03-11T21:12:39.989Z,54.84
2023-03-11T21:15:09.006Z,56.07
2023-03-11T21:17:37.389Z,57.28
2023-03-11T21:20:06.576Z,58.52
2023-03-11T21:22:34.098Z,59.02
2023-03-11T21:25:01.174Z,59.79
2023-03-11T21:27:28.507Z,60.02
2023-03-11T21:29:56.013Z,61.12
2023-03-11T21:32:25.001Z,61.42
2023-03-11T21:34:55.968Z,61.67
2023-03-11T21:37:23.400Z,62.58
2023-03-11T21:39:50.612Z,63.05
2023-03-11T21:42:18.250Z,63.67
2023-03-11T21:44:45.693Z,64.59
2023-03-11T21:47:12.813Z,64.59
2023-03-11T21:49:40.123Z,64.94
2023-03-11T21:52:07.534Z,65.28
2023-03-11T21:54:34.733Z,65.25
2023-03-11T21:57:01.880Z,65.53
2023-03-11T21:59:30.758Z,65.39
2023-03-11T22:02:01.540Z,65.64
2023-03-11T22:04:30.061Z,64.79
2023-03-11T22:06:57.589Z,65.16
2023-03-11T22:09:26.122Z,65.16
2023-03-11T22:11:54.266Z,65.51
2023-03-11T22:14:21.447Z,65.89
2023-03-11T22:16:48.910Z,66.39
2023-03-11T22:19:16.040Z,66.43
2023-03-11T22:21:43.769Z,66.86
2023-03-11T22:24:11.144Z,67.29
2023-03-11T22:26:38.438Z,67.40
2023-03-11T22:29:08.583Z,67.68
2023-03-11T22:31:36.056Z,68.07
2023-03-11T22:34:03.232Z,68.07
2023-03-11T22:36:30.349Z,68.63
2023-03-11T22:38:57.440Z,68.68
2023-03-11T22:41:24.566Z,69.22
2023-03-11T22:43:51.704Z,69.44
2023-03-11T22:46:18.852Z,69.33
2023-03-11T22:48:46.065Z,69.36
2023-03-11T22:51:13.375Z,69.34
2023-03-11T22:53:40.512Z,69.16
2023-03-11T22:56:10.655Z,69.18
2023-03-11T22:58:38.323Z,69.21
2023-03-11T23:01:06.388Z,68.80
2023-03-11T23:03:34.844Z,68.85
2023-03-11T23:06:06.742Z,68.60
2023-03-11T23:08:34.621Z,68.23
2023-03-11T23:11:03.947Z,68.06
2023-03-11T23:13:32.417Z,67.88
2023-03-11T23:16:05.332Z,68.00
2023-03-11T23:18:32.495Z,68.22
2023-03-11T23:20:59.550Z,68.50
2023-03-11T23:23:26.918Z,68.71
2023-03-11T23:25:54.181Z,69.08
2023-03-11T23:28:21.530Z,69.35
2023-03-11T23:30:48.623Z,69.43
2023-03-11T23:33:15.688Z,69.80
2023-03-11T23:35:43.099Z,70.15
2023-03-11T23:38:10.577Z,70.03
2023-03-11T23:40:40.826Z,69.77
2023-03-11T23:43:08.229Z,69.80
2023-03-11T23:45:35.564Z,70.11
2023-03-11T23:48:02.666Z,70.19
2023-03-11T23:50:29.764Z,70.58
2023-03-11T23:52:56.931Z,70.66
2023-03-11T23:55:24.115Z,70.94
2023-03-11T23:57:51.305Z,71.00
